KIJD

Windham Airport

Willimantic, Connecticut, USA
METAR KIJD 141320Z AUTO 16003KT 10SM FEW008 BKN015 OVC050 24/23 A2991 RMK AO2 T02440233
Observed Flight Rules
Aug-14 @ 13:20 UTC (21 minutes ago) Marginal Visual Flight Rules
Wind Visibility Clouds
160° at 3 knots 10 miles
  • Few at 800' AGL
  • Broken at 1,500' AGL
  • Overcast at 5,000' AGL
Temperatures Readings
Current 24°C / 75°F
Dewpoint 23°C / 73°F
Humidity 94%
Altimeter 29.91" Hg
Pressure 1013 hPa
Elevation 75
METAR KIJD 141320Z AUTO 16003KT 10SM FEW008 BKN015 OVC050 24/23 A2991 RMK AO2 T02440233
Observed Flight Rules
Aug-14 @ 13:20 UTC
(21 minutes ago)
MVFR
Wind Visibility
160° at 3 knots 10 miles
Clouds
  • Few at 800' AGL
  • Broken at 1,500' AGL
  • Overcast at 5,000' AGL
Temperature Dewpoint
24°C / 75°F 23°C / 73°F
Humidity Altimeter Pressure
94% 29.91" Hg 1013 hPa